sensor_id;sensor_type;location;lat;lon;timestamp;P1;durP1;ratioP1;P2;durP2;ratioP2
52718;SDS011;38616;42.140;24.760;2022-08-19T00:00:27;8.65;;;4.75;;
52718;SDS011;38616;42.140;24.760;2022-08-19T00:02:53;10.63;;;4.47;;
52718;SDS011;38616;42.140;24.760;2022-08-19T00:05:19;7.72;;;4.88;;
52718;SDS011;38616;42.140;24.760;2022-08-19T00:07:46;8.77;;;4.57;;
52718;SDS011;38616;42.140;24.760;2022-08-19T00:10:14;7.80;;;4.80;;
52718;SDS011;38616;42.140;24.760;2022-08-19T00:12:41;7.22;;;4.45;;
52718;SDS011;38616;42.140;24.760;2022-08-19T00:15:08;10.38;;;4.28;;
52718;SDS011;38616;42.140;24.760;2022-08-19T00:17:41;11.57;;;4.60;;
52718;SDS011;38616;42.140;24.760;2022-08-19T00:20:08;7.70;;;4.97;;
52718;SDS011;38616;42.140;24.760;2022-08-19T00:22:36;9.00;;;4.65;;
52718;SDS011;38616;42.140;24.760;2022-08-19T00:25:03;7.88;;;4.35;;
52718;SDS011;38616;42.140;24.760;2022-08-19T00:27:29;5.70;;;4.45;;
52718;SDS011;38616;42.140;24.760;2022-08-19T00:29:55;7.30;;;4.78;;
52718;SDS011;38616;42.140;24.760;2022-08-19T00:32:20;7.57;;;5.32;;
52718;SDS011;38616;42.140;24.760;2022-08-19T00:34:46;9.93;;;5.10;;
52718;SDS011;38616;42.140;24.760;2022-08-19T00:37:11;6.18;;;4.10;;
52718;SDS011;38616;42.140;24.760;2022-08-19T00:39:37;7.18;;;4.45;;
52718;SDS011;38616;42.140;24.760;2022-08-19T00:42:03;12.35;;;5.38;;
52718;SDS011;38616;42.140;24.760;2022-08-19T00:44:29;7.82;;;4.25;;
52718;SDS011;38616;42.140;24.760;2022-08-19T00:46:56;13.70;;;5.68;;
52718;SDS011;38616;42.140;24.760;2022-08-19T00:52:24;10.18;;;5.63;;
52718;SDS011;38616;42.140;24.760;2022-08-19T00:54:57;11.38;;;5.78;;
52718;SDS011;38616;42.140;24.760;2022-08-19T00:57:26;14.25;;;6.68;;
52718;SDS011;38616;42.140;24.760;2022-08-19T00:59:57;9.18;;;5.82;;
52718;SDS011;38616;42.140;24.760;2022-08-19T01:02:24;12.10;;;6.35;;
52718;SDS011;38616;42.140;24.760;2022-08-19T01:04:51;10.13;;;5.88;;
52718;SDS011;38616;42.140;24.760;2022-08-19T01:07:17;14.82;;;6.22;;
52718;SDS011;38616;42.140;24.760;2022-08-19T01:09:43;13.77;;;6.90;;
52718;SDS011;38616;42.140;24.760;2022-08-19T01:12:09;15.23;;;7.25;;
52718;SDS011;38616;42.140;24.760;2022-08-19T01:14:35;12.77;;;7.20;;
52718;SDS011;38616;42.140;24.760;2022-08-19T01:17:03;10.20;;;6.70;;
52718;SDS011;38616;42.140;24.760;2022-08-19T01:19:32;15.50;;;7.95;;
52718;SDS011;38616;42.140;24.760;2022-08-19T01:22:12;10.57;;;6.38;;
52718;SDS011;38616;42.140;24.760;2022-08-19T01:24:48;13.90;;;6.82;;
52718;SDS011;38616;42.140;24.760;2022-08-19T01:27:15;12.30;;;7.03;;
52718;SDS011;38616;42.140;24.760;2022-08-19T01:29:41;16.37;;;7.00;;
52718;SDS011;38616;42.140;24.760;2022-08-19T01:32:09;12.07;;;7.00;;
52718;SDS011;38616;42.140;24.760;2022-08-19T01:34:38;15.23;;;7.00;;
52718;SDS011;38616;42.140;24.760;2022-08-19T01:37:08;11.20;;;6.97;;
52718;SDS011;38616;42.140;24.760;2022-08-19T01:39:36;13.50;;;6.75;;
52718;SDS011;38616;42.140;24.760;2022-08-19T01:42:03;12.25;;;7.20;;
52718;SDS011;38616;42.140;24.760;2022-08-19T01:44:30;10.00;;;6.15;;
52718;SDS011;38616;42.140;24.760;2022-08-19T01:46:55;14.50;;;6.97;;
52718;SDS011;38616;42.140;24.760;2022-08-19T01:49:21;12.48;;;6.78;;
52718;SDS011;38616;42.140;24.760;2022-08-19T01:51:49;12.57;;;6.57;;
52718;SDS011;38616;42.140;24.760;2022-08-19T01:54:16;11.55;;;6.55;;
52718;SDS011;38616;42.140;24.760;2022-08-19T01:56:43;11.35;;;6.05;;
52718;SDS011;38616;42.140;24.760;2022-08-19T01:59:10;11.25;;;6.88;;
52718;SDS011;38616;42.140;24.760;2022-08-19T02:01:39;18.90;;;7.43;;
52718;SDS011;38616;42.140;24.760;2022-08-19T02:04:05;12.18;;;7.53;;
52718;SDS011;38616;42.140;24.760;2022-08-19T02:06:31;18.55;;;7.20;;
52718;SDS011;38616;42.140;24.760;2022-08-19T02:08:57;17.63;;;7.70;;
52718;SDS011;38616;42.140;24.760;2022-08-19T02:11:24;15.55;;;7.35;;
52718;SDS011;38616;42.140;24.760;2022-08-19T02:13:53;11.77;;;6.88;;
52718;SDS011;38616;42.140;24.760;2022-08-19T02:16:19;13.82;;;7.00;;
52718;SDS011;38616;42.140;24.760;2022-08-19T02:18:45;12.38;;;7.60;;
52718;SDS011;38616;42.140;24.760;2022-08-19T02:21:13;18.67;;;7.20;;
52718;SDS011;38616;42.140;24.760;2022-08-19T02:23:43;14.25;;;7.78;;
52718;SDS011;38616;42.140;24.760;2022-08-19T02:26:09;20.05;;;9.38;;
52718;SDS011;38616;42.140;24.760;2022-08-19T02:28:35;20.77;;;8.63;;
52718;SDS011;38616;42.140;24.760;2022-08-19T02:31:02;18.10;;;8.18;;
52718;SDS011;38616;42.140;24.760;2022-08-19T02:33:28;16.33;;;8.27;;
52718;SDS011;38616;42.140;24.760;2022-08-19T02:35:53;14.63;;;7.60;;
52718;SDS011;38616;42.140;24.760;2022-08-19T02:38:19;16.48;;;7.63;;
52718;SDS011;38616;42.140;24.760;2022-08-19T02:40:51;18.42;;;8.38;;
52718;SDS011;38616;42.140;24.760;2022-08-19T02:43:25;17.48;;;7.18;;
52718;SDS011;38616;42.140;24.760;2022-08-19T02:45:52;19.10;;;7.38;;
52718;SDS011;38616;42.140;24.760;2022-08-19T02:48:19;13.30;;;7.73;;
52718;SDS011;38616;42.140;24.760;2022-08-19T02:50:47;15.00;;;6.93;;
52718;SDS011;38616;42.140;24.760;2022-08-19T02:53:15;16.40;;;7.72;;
52718;SDS011;38616;42.140;24.760;2022-08-19T02:55:47;17.63;;;6.63;;
52718;SDS011;38616;42.140;24.760;2022-08-19T02:58:13;17.42;;;9.88;;
52718;SDS011;38616;42.140;24.760;2022-08-19T03:03:07;23.65;;;14.85;;
52718;SDS011;38616;42.140;24.760;2022-08-19T03:05:32;16.05;;;9.10;;
52718;SDS011;38616;42.140;24.760;2022-08-19T03:07:59;16.27;;;7.55;;
52718;SDS011;38616;42.140;24.760;2022-08-19T03:10:24;12.13;;;7.85;;
52718;SDS011;38616;42.140;24.760;2022-08-19T03:12:50;24.05;;;8.02;;
52718;SDS011;38616;42.140;24.760;2022-08-19T03:15:15;10.52;;;6.43;;
52718;SDS011;38616;42.140;24.760;2022-08-19T03:17:41;16.08;;;7.20;;
52718;SDS011;38616;42.140;24.760;2022-08-19T03:20:06;12.30;;;7.07;;
52718;SDS011;38616;42.140;24.760;2022-08-19T03:22:32;14.13;;;6.93;;
52718;SDS011;38616;42.140;24.760;2022-08-19T03:24:58;13.38;;;6.45;;
52718;SDS011;38616;42.140;24.760;2022-08-19T03:27:24;12.80;;;7.20;;
52718;SDS011;38616;42.140;24.760;2022-08-19T03:29:49;19.02;;;10.20;;
52718;SDS011;38616;42.140;24.760;2022-08-19T03:32:15;12.50;;;7.35;;
52718;SDS011;38616;42.140;24.760;2022-08-19T03:34:41;15.90;;;7.22;;
52718;SDS011;38616;42.140;24.760;2022-08-19T03:37:07;12.18;;;7.10;;
52718;SDS011;38616;42.140;24.760;2022-08-19T03:39:37;17.92;;;8.43;;
52718;SDS011;38616;42.140;24.760;2022-08-19T03:42:04;19.63;;;10.07;;
52718;SDS011;38616;42.140;24.760;2022-08-19T03:44:30;18.95;;;11.23;;
52718;SDS011;38616;42.140;24.760;2022-08-19T03:46:58;22.05;;;10.10;;
52718;SDS011;38616;42.140;24.760;2022-08-19T03:49:26;13.45;;;8.60;;
52718;SDS011;38616;42.140;24.760;2022-08-19T03:51:54;16.92;;;9.13;;
52718;SDS011;38616;42.140;24.760;2022-08-19T03:54:22;19.50;;;8.25;;
52718;SDS011;38616;42.140;24.760;2022-08-19T03:56:49;13.05;;;7.55;;
52718;SDS011;38616;42.140;24.760;2022-08-19T03:59:18;14.32;;;7.45;;
52718;SDS011;38616;42.140;24.760;2022-08-19T04:01:50;11.65;;;6.53;;
52718;SDS011;38616;42.140;24.760;2022-08-19T04:04:15;19.85;;;7.78;;
52718;SDS011;38616;42.140;24.760;2022-08-19T04:06:41;16.15;;;7.40;;
52718;SDS011;38616;42.140;24.760;2022-08-19T04:11:39;13.18;;;6.90;;
52718;SDS011;38616;42.140;24.760;2022-08-19T04:14:06;15.75;;;6.95;;
52718;SDS011;38616;42.140;24.760;2022-08-19T04:16:33;18.98;;;7.93;;
52718;SDS011;38616;42.140;24.760;2022-08-19T04:19:00;17.00;;;7.15;;
52718;SDS011;38616;42.140;24.760;2022-08-19T04:21:27;27.10;;;9.23;;
52718;SDS011;38616;42.140;24.760;2022-08-19T04:23:53;18.70;;;7.72;;
52718;SDS011;38616;42.140;24.760;2022-08-19T04:26:21;15.93;;;8.40;;
52718;SDS011;38616;42.140;24.760;2022-08-19T04:28:49;21.38;;;8.52;;
52718;SDS011;38616;42.140;24.760;2022-08-19T04:33:43;20.85;;;8.25;;
52718;SDS011;38616;42.140;24.760;2022-08-19T04:36:16;29.70;;;9.82;;
52718;SDS011;38616;42.140;24.760;2022-08-19T04:38:55;34.13;;;9.45;;
52718;SDS011;38616;42.140;24.760;2022-08-19T04:41:27;20.13;;;8.93;;
52718;SDS011;38616;42.140;24.760;2022-08-19T04:44:12;26.15;;;8.70;;
52718;SDS011;38616;42.140;24.760;2022-08-19T04:46:38;38.23;;;11.47;;
52718;SDS011;38616;42.140;24.760;2022-08-19T04:49:05;25.05;;;9.18;;
52718;SDS011;38616;42.140;24.760;2022-08-19T04:51:31;27.20;;;9.60;;
52718;SDS011;38616;42.140;24.760;2022-08-19T04:53:58;30.20;;;9.48;;
52718;SDS011;38616;42.140;24.760;2022-08-19T04:56:26;31.67;;;11.05;;
52718;SDS011;38616;42.140;24.760;2022-08-19T04:58:52;27.70;;;9.35;;
52718;SDS011;38616;42.140;24.760;2022-08-19T05:01:21;23.35;;;9.40;;
52718;SDS011;38616;42.140;24.760;2022-08-19T05:03:51;17.92;;;9.55;;
52718;SDS011;38616;42.140;24.760;2022-08-19T05:06:18;22.55;;;9.48;;
52718;SDS011;38616;42.140;24.760;2022-08-19T05:11:31;16.58;;;7.57;;
52718;SDS011;38616;42.140;24.760;2022-08-19T05:13:59;14.48;;;8.75;;
52718;SDS011;38616;42.140;24.760;2022-08-19T05:16:25;18.38;;;8.13;;
52718;SDS011;38616;42.140;24.760;2022-08-19T05:18:51;17.27;;;7.13;;
52718;SDS011;38616;42.140;24.760;2022-08-19T05:21:37;22.08;;;7.28;;
52718;SDS011;38616;42.140;24.760;2022-08-19T05:24:23;16.90;;;7.45;;
52718;SDS011;38616;42.140;24.760;2022-08-19T05:26:49;26.63;;;7.43;;
52718;SDS011;38616;42.140;24.760;2022-08-19T05:29:17;19.52;;;7.32;;
52718;SDS011;38616;42.140;24.760;2022-08-19T05:31:45;14.38;;;6.30;;
52718;SDS011;38616;42.140;24.760;2022-08-19T05:34:12;15.43;;;6.47;;
52718;SDS011;38616;42.140;24.760;2022-08-19T05:36:39;12.13;;;5.80;;
52718;SDS011;38616;42.140;24.760;2022-08-19T05:39:07;11.75;;;5.88;;
52718;SDS011;38616;42.140;24.760;2022-08-19T05:41:35;12.85;;;5.88;;
52718;SDS011;38616;42.140;24.760;2022-08-19T05:44:01;7.80;;;5.43;;
52718;SDS011;38616;42.140;24.760;2022-08-19T05:46:30;8.82;;;5.25;;
52718;SDS011;38616;42.140;24.760;2022-08-19T05:48:56;9.80;;;6.18;;
52718;SDS011;38616;42.140;24.760;2022-08-19T05:51:22;9.25;;;4.88;;
52718;SDS011;38616;42.140;24.760;2022-08-19T05:53:49;8.43;;;4.72;;
52718;SDS011;38616;42.140;24.760;2022-08-19T05:56:16;11.25;;;4.78;;
52718;SDS011;38616;42.140;24.760;2022-08-19T05:58:43;11.50;;;5.07;;
52718;SDS011;38616;42.140;24.760;2022-08-19T06:03:37;9.88;;;5.38;;
52718;SDS011;38616;42.140;24.760;2022-08-19T06:06:04;10.75;;;6.90;;
52718;SDS011;38616;42.140;24.760;2022-08-19T06:08:33;11.57;;;6.00;;
52718;SDS011;38616;42.140;24.760;2022-08-19T06:13:42;16.30;;;7.22;;
52718;SDS011;38616;42.140;24.760;2022-08-19T06:16:08;15.82;;;5.45;;
52718;SDS011;38616;42.140;24.760;2022-08-19T06:18:33;16.35;;;5.88;;
52718;SDS011;38616;42.140;24.760;2022-08-19T06:20:59;19.60;;;6.60;;
52718;SDS011;38616;42.140;24.760;2022-08-19T06:23:28;17.35;;;6.63;;
52718;SDS011;38616;42.140;24.760;2022-08-19T06:25:54;20.88;;;6.78;;
52718;SDS011;38616;42.140;24.760;2022-08-19T06:28:19;17.30;;;6.05;;
52718;SDS011;38616;42.140;24.760;2022-08-19T06:30:45;23.65;;;6.15;;
52718;SDS011;38616;42.140;24.760;2022-08-19T06:33:11;15.07;;;6.35;;
52718;SDS011;38616;42.140;24.760;2022-08-19T06:35:40;12.82;;;6.13;;
52718;SDS011;38616;42.140;24.760;2022-08-19T06:38:06;7.53;;;5.70;;
52718;SDS011;38616;42.140;24.760;2022-08-19T06:40:32;15.18;;;5.97;;
52718;SDS011;38616;42.140;24.760;2022-08-19T06:42:57;11.43;;;5.22;;
52718;SDS011;38616;42.140;24.760;2022-08-19T06:45:26;15.40;;;6.45;;
52718;SDS011;38616;42.140;24.760;2022-08-19T06:47:52;9.70;;;5.03;;
52718;SDS011;38616;42.140;24.760;2022-08-19T06:50:21;9.60;;;5.75;;
52718;SDS011;38616;42.140;24.760;2022-08-19T06:52:47;10.67;;;5.93;;
52718;SDS011;38616;42.140;24.760;2022-08-19T06:55:12;12.88;;;5.80;;
52718;SDS011;38616;42.140;24.760;2022-08-19T06:57:38;11.25;;;6.28;;
52718;SDS011;38616;42.140;24.760;2022-08-19T07:00:04;12.63;;;5.82;;
52718;SDS011;38616;42.140;24.760;2022-08-19T07:02:33;9.68;;;5.50;;
52718;SDS011;38616;42.140;24.760;2022-08-19T07:05:02;9.05;;;5.13;;
52718;SDS011;38616;42.140;24.760;2022-08-19T07:07:28;10.13;;;5.50;;
52718;SDS011;38616;42.140;24.760;2022-08-19T07:09:54;7.78;;;5.25;;
52718;SDS011;38616;42.140;24.760;2022-08-19T07:12:19;8.57;;;5.18;;
52718;SDS011;38616;42.140;24.760;2022-08-19T07:14:44;11.27;;;5.53;;
52718;SDS011;38616;42.140;24.760;2022-08-19T07:17:13;15.57;;;7.38;;
52718;SDS011;38616;42.140;24.760;2022-08-19T07:19:39;10.30;;;5.32;;
52718;SDS011;38616;42.140;24.760;2022-08-19T07:22:06;9.57;;;4.85;;
52718;SDS011;38616;42.140;24.760;2022-08-19T07:24:33;6.43;;;4.38;;
52718;SDS011;38616;42.140;24.760;2022-08-19T07:26:59;9.57;;;5.05;;
52718;SDS011;38616;42.140;24.760;2022-08-19T07:29:31;9.82;;;5.50;;
52718;SDS011;38616;42.140;24.760;2022-08-19T07:32:02;16.58;;;7.18;;
52718;SDS011;38616;42.140;24.760;2022-08-19T07:34:29;11.02;;;4.55;;
52718;SDS011;38616;42.140;24.760;2022-08-19T07:36:56;12.70;;;5.15;;
52718;SDS011;38616;42.140;24.760;2022-08-19T07:39:24;10.63;;;4.80;;
52718;SDS011;38616;42.140;24.760;2022-08-19T07:41:52;11.10;;;5.15;;
52718;SDS011;38616;42.140;24.760;2022-08-19T07:44:19;9.90;;;4.50;;
52718;SDS011;38616;42.140;24.760;2022-08-19T07:46:46;8.00;;;4.25;;
52718;SDS011;38616;42.140;24.760;2022-08-19T07:49:14;6.72;;;4.45;;
52718;SDS011;38616;42.140;24.760;2022-08-19T07:51:49;10.43;;;5.47;;
52718;SDS011;38616;42.140;24.760;2022-08-19T07:54:17;7.55;;;4.05;;
52718;SDS011;38616;42.140;24.760;2022-08-19T07:56:44;10.02;;;4.32;;
52718;SDS011;38616;42.140;24.760;2022-08-19T07:59:10;11.45;;;4.63;;
52718;SDS011;38616;42.140;24.760;2022-08-19T08:01:36;10.60;;;4.85;;
52718;SDS011;38616;42.140;24.760;2022-08-19T08:04:05;5.93;;;4.43;;
52718;SDS011;38616;42.140;24.760;2022-08-19T08:06:50;6.63;;;4.50;;
52718;SDS011;38616;42.140;24.760;2022-08-19T08:09:36;7.28;;;4.32;;
52718;SDS011;38616;42.140;24.760;2022-08-19T08:12:11;5.85;;;4.32;;
52718;SDS011;38616;42.140;24.760;2022-08-19T08:14:45;8.75;;;4.43;;
52718;SDS011;38616;42.140;24.760;2022-08-19T08:17:12;9.07;;;4.03;;
52718;SDS011;38616;42.140;24.760;2022-08-19T08:19:40;9.07;;;4.35;;
52718;SDS011;38616;42.140;24.760;2022-08-19T08:22:06;8.90;;;3.90;;
52718;SDS011;38616;42.140;24.760;2022-08-19T08:24:33;8.50;;;4.53;;
52718;SDS011;38616;42.140;24.760;2022-08-19T08:27:00;10.50;;;4.25;;
52718;SDS011;38616;42.140;24.760;2022-08-19T08:29:26;6.78;;;4.43;;
52718;SDS011;38616;42.140;24.760;2022-08-19T08:31:53;6.25;;;3.95;;
52718;SDS011;38616;42.140;24.760;2022-08-19T08:34:19;8.07;;;4.78;;
52718;SDS011;38616;42.140;24.760;2022-08-19T08:36:45;11.45;;;4.40;;
52718;SDS011;38616;42.140;24.760;2022-08-19T08:39:12;8.65;;;4.50;;
52718;SDS011;38616;42.140;24.760;2022-08-19T08:44:50;9.75;;;4.70;;
52718;SDS011;38616;42.140;24.760;2022-08-19T08:47:17;8.20;;;4.10;;
52718;SDS011;38616;42.140;24.760;2022-08-19T08:52:18;7.47;;;4.10;;
52718;SDS011;38616;42.140;24.760;2022-08-19T08:54:50;6.88;;;4.15;;
52718;SDS011;38616;42.140;24.760;2022-08-19T08:57:32;6.40;;;4.22;;
52718;SDS011;38616;42.140;24.760;2022-08-19T09:00:04;11.38;;;4.45;;
52718;SDS011;38616;42.140;24.760;2022-08-19T09:02:32;6.15;;;3.97;;
52718;SDS011;38616;42.140;24.760;2022-08-19T09:04:58;9.82;;;4.15;;
52718;SDS011;38616;42.140;24.760;2022-08-19T09:10:18;7.97;;;4.25;;
52718;SDS011;38616;42.140;24.760;2022-08-19T09:12:52;8.80;;;3.95;;
52718;SDS011;38616;42.140;24.760;2022-08-19T09:15:35;7.07;;;4.63;;
52718;SDS011;38616;42.140;24.760;2022-08-19T09:18:05;6.53;;;4.22;;
52718;SDS011;38616;42.140;24.760;2022-08-19T09:20:33;6.97;;;4.65;;
52718;SDS011;38616;42.140;24.760;2022-08-19T09:22:59;7.90;;;4.50;;
52718;SDS011;38616;42.140;24.760;2022-08-19T09:25:24;7.38;;;4.20;;
52718;SDS011;38616;42.140;24.760;2022-08-19T09:27:51;9.10;;;4.65;;
52718;SDS011;38616;42.140;24.760;2022-08-19T09:30:25;6.10;;;4.22;;
52718;SDS011;38616;42.140;24.760;2022-08-19T09:32:52;6.28;;;4.22;;
52718;SDS011;38616;42.140;24.760;2022-08-19T09:35:20;6.00;;;4.28;;
52718;SDS011;38616;42.140;24.760;2022-08-19T09:37:47;6.07;;;3.80;;
52718;SDS011;38616;42.140;24.760;2022-08-19T09:40:14;9.05;;;4.32;;
52718;SDS011;38616;42.140;24.760;2022-08-19T09:42:40;5.73;;;4.27;;
52718;SDS011;38616;42.140;24.760;2022-08-19T09:45:08;8.73;;;4.18;;
52718;SDS011;38616;42.140;24.760;2022-08-19T09:47:35;6.63;;;4.05;;
52718;SDS011;38616;42.140;24.760;2022-08-19T09:50:03;6.70;;;4.25;;
52718;SDS011;38616;42.140;24.760;2022-08-19T09:52:34;11.15;;;5.30;;
52718;SDS011;38616;42.140;24.760;2022-08-19T09:55:01;9.10;;;4.40;;
52718;SDS011;38616;42.140;24.760;2022-08-19T09:57:31;7.88;;;4.30;;
52718;SDS011;38616;42.140;24.760;2022-08-19T09:59:56;6.50;;;4.05;;
52718;SDS011;38616;42.140;24.760;2022-08-19T10:02:22;14.48;;;4.38;;
52718;SDS011;38616;42.140;24.760;2022-08-19T10:04:47;7.38;;;4.85;;
52718;SDS011;38616;42.140;24.760;2022-08-19T10:07:31;9.60;;;4.07;;
52718;SDS011;38616;42.140;24.760;2022-08-19T10:09:57;6.10;;;4.38;;
52718;SDS011;38616;42.140;24.760;2022-08-19T10:12:22;9.88;;;4.82;;
52718;SDS011;38616;42.140;24.760;2022-08-19T10:14:48;7.53;;;4.13;;
52718;SDS011;38616;42.140;24.760;2022-08-19T10:17:16;10.68;;;4.07;;
52718;SDS011;38616;42.140;24.760;2022-08-19T10:19:42;8.15;;;4.03;;
52718;SDS011;38616;42.140;24.760;2022-08-19T10:22:08;9.10;;;3.80;;
52718;SDS011;38616;42.140;24.760;2022-08-19T10:24:34;9.82;;;4.80;;
52718;SDS011;38616;42.140;24.760;2022-08-19T10:27:00;10.73;;;4.57;;
52718;SDS011;38616;42.140;24.760;2022-08-19T10:29:28;6.93;;;4.18;;
52718;SDS011;38616;42.140;24.760;2022-08-19T10:31:55;7.28;;;4.53;;
52718;SDS011;38616;42.140;24.760;2022-08-19T10:34:21;7.95;;;4.43;;
52718;SDS011;38616;42.140;24.760;2022-08-19T10:36:48;9.10;;;4.33;;
52718;SDS011;38616;42.140;24.760;2022-08-19T10:39:13;8.00;;;4.50;;
52718;SDS011;38616;42.140;24.760;2022-08-19T10:41:39;6.93;;;4.93;;
52718;SDS011;38616;42.140;24.760;2022-08-19T10:44:10;7.65;;;4.85;;
52718;SDS011;38616;42.140;24.760;2022-08-19T10:46:38;7.90;;;4.68;;
52718;SDS011;38616;42.140;24.760;2022-08-19T10:49:06;7.88;;;5.00;;
52718;SDS011;38616;42.140;24.760;2022-08-19T10:54:17;8.38;;;5.18;;
52718;SDS011;38616;42.140;24.760;2022-08-19T10:56:43;8.43;;;4.35;;
52718;SDS011;38616;42.140;24.760;2022-08-19T10:59:19;7.75;;;4.28;;
52718;SDS011;38616;42.140;24.760;2022-08-19T11:01:52;6.80;;;4.55;;
52718;SDS011;38616;42.140;24.760;2022-08-19T11:06:45;12.47;;;4.17;;
52718;SDS011;38616;42.140;24.760;2022-08-19T11:09:22;7.95;;;3.33;;
52718;SDS011;38616;42.140;24.760;2022-08-19T11:11:55;5.72;;;3.60;;
52718;SDS011;38616;42.140;24.760;2022-08-19T11:14:21;8.68;;;3.67;;
52718;SDS011;38616;42.140;24.760;2022-08-19T11:16:49;4.88;;;3.03;;
52718;SDS011;38616;42.140;24.760;2022-08-19T11:19:15;6.93;;;4.10;;
52718;SDS011;38616;42.140;24.760;2022-08-19T11:21:44;8.40;;;3.17;;
52718;SDS011;38616;42.140;24.760;2022-08-19T11:24:12;7.53;;;3.72;;
52718;SDS011;38616;42.140;24.760;2022-08-19T11:26:40;7.05;;;3.90;;
52718;SDS011;38616;42.140;24.760;2022-08-19T11:29:07;6.05;;;3.58;;
52718;SDS011;38616;42.140;24.760;2022-08-19T11:31:38;8.05;;;4.30;;
52718;SDS011;38616;42.140;24.760;2022-08-19T11:34:10;9.60;;;3.90;;
52718;SDS011;38616;42.140;24.760;2022-08-19T11:36:39;7.30;;;3.92;;
52718;SDS011;38616;42.140;24.760;2022-08-19T11:39:07;6.95;;;3.75;;
52718;SDS011;38616;42.140;24.760;2022-08-19T11:41:33;5.40;;;3.95;;
52718;SDS011;38616;42.140;24.760;2022-08-19T11:43:59;5.50;;;3.45;;
52718;SDS011;38616;42.140;24.760;2022-08-19T11:46:25;10.82;;;4.38;;
52718;SDS011;38616;42.140;24.760;2022-08-19T11:48:54;11.38;;;5.03;;
52718;SDS011;38616;42.140;24.760;2022-08-19T11:51:21;5.10;;;3.67;;
52718;SDS011;38616;42.140;24.760;2022-08-19T11:53:49;10.38;;;5.60;;
52718;SDS011;38616;42.140;24.760;2022-08-19T11:59:07;6.53;;;4.00;;
52718;SDS011;38616;42.140;24.760;2022-08-19T12:01:33;9.18;;;4.65;;
52718;SDS011;38616;42.140;24.760;2022-08-19T12:03:59;6.43;;;3.80;;
52718;SDS011;38616;42.140;24.760;2022-08-19T12:06:26;6.93;;;3.80;;
52718;SDS011;38616;42.140;24.760;2022-08-19T12:08:53;11.05;;;4.50;;
52718;SDS011;38616;42.140;24.760;2022-08-19T12:11:23;11.85;;;3.92;;
52718;SDS011;38616;42.140;24.760;2022-08-19T12:13:49;9.90;;;4.47;;
52718;SDS011;38616;42.140;24.760;2022-08-19T12:16:19;5.40;;;4.23;;
52718;SDS011;38616;42.140;24.760;2022-08-19T12:18:49;8.10;;;4.45;;
52718;SDS011;38616;42.140;24.760;2022-08-19T12:21:17;6.13;;;4.65;;
52718;SDS011;38616;42.140;24.760;2022-08-19T12:23:46;5.80;;;4.00;;
52718;SDS011;38616;42.140;24.760;2022-08-19T12:26:13;10.73;;;5.05;;
52718;SDS011;38616;42.140;24.760;2022-08-19T12:28:38;8.60;;;3.38;;
52718;SDS011;38616;42.140;24.760;2022-08-19T12:31:04;5.95;;;4.20;;
52718;SDS011;38616;42.140;24.760;2022-08-19T12:33:30;5.87;;;4.10;;
52718;SDS011;38616;42.140;24.760;2022-08-19T12:35:59;12.15;;;4.03;;
52718;SDS011;38616;42.140;24.760;2022-08-19T12:38:27;6.88;;;3.85;;
52718;SDS011;38616;42.140;24.760;2022-08-19T12:40:53;9.80;;;4.32;;
52718;SDS011;38616;42.140;24.760;2022-08-19T12:43:18;8.27;;;4.18;;
52718;SDS011;38616;42.140;24.760;2022-08-19T12:45:45;6.00;;;3.63;;
52718;SDS011;38616;42.140;24.760;2022-08-19T12:48:11;8.40;;;4.45;;
52718;SDS011;38616;42.140;24.760;2022-08-19T12:50:41;8.35;;;4.20;;
52718;SDS011;38616;42.140;24.760;2022-08-19T12:53:10;5.60;;;4.32;;
52718;SDS011;38616;42.140;24.760;2022-08-19T12:55:36;9.30;;;3.72;;
52718;SDS011;38616;42.140;24.760;2022-08-19T12:58:22;9.30;;;4.30;;
52718;SDS011;38616;42.140;24.760;2022-08-19T13:00:48;7.57;;;4.13;;
52718;SDS011;38616;42.140;24.760;2022-08-19T13:03:14;11.15;;;4.35;;
52718;SDS011;38616;42.140;24.760;2022-08-19T13:05:40;7.90;;;4.40;;
52718;SDS011;38616;42.140;24.760;2022-08-19T13:08:08;5.40;;;4.10;;
52718;SDS011;38616;42.140;24.760;2022-08-19T13:10:35;5.57;;;3.47;;
52718;SDS011;38616;42.140;24.760;2022-08-19T13:13:05;5.50;;;3.72;;
52718;SDS011;38616;42.140;24.760;2022-08-19T13:15:33;7.68;;;4.22;;
52718;SDS011;38616;42.140;24.760;2022-08-19T13:18:00;8.43;;;4.05;;
52718;SDS011;38616;42.140;24.760;2022-08-19T13:20:26;5.00;;;3.83;;
52718;SDS011;38616;42.140;24.760;2022-08-19T13:22:52;7.97;;;3.75;;
52718;SDS011;38616;42.140;24.760;2022-08-19T13:25:18;13.52;;;5.07;;
52718;SDS011;38616;42.140;24.760;2022-08-19T13:27:45;10.18;;;4.03;;
52718;SDS011;38616;42.140;24.760;2022-08-19T13:30:12;9.20;;;3.90;;
52718;SDS011;38616;42.140;24.760;2022-08-19T13:32:58;5.20;;;3.55;;
52718;SDS011;38616;42.140;24.760;2022-08-19T13:35:46;7.53;;;4.20;;
52718;SDS011;38616;42.140;24.760;2022-08-19T13:38:20;6.55;;;4.10;;
52718;SDS011;38616;42.140;24.760;2022-08-19T13:40:47;5.53;;;3.92;;
52718;SDS011;38616;42.140;24.760;2022-08-19T13:43:17;7.45;;;3.50;;
52718;SDS011;38616;42.140;24.760;2022-08-19T13:45:44;9.43;;;3.75;;
52718;SDS011;38616;42.140;24.760;2022-08-19T13:48:12;8.57;;;4.45;;
52718;SDS011;38616;42.140;24.760;2022-08-19T13:50:39;6.10;;;4.10;;
52718;SDS011;38616;42.140;24.760;2022-08-19T13:53:06;4.85;;;4.00;;
52718;SDS011;38616;42.140;24.760;2022-08-19T13:55:33;8.30;;;3.85;;
52718;SDS011;38616;42.140;24.760;2022-08-19T13:57:59;9.17;;;3.57;;
52718;SDS011;38616;42.140;24.760;2022-08-19T14:00:28;10.65;;;3.78;;
52718;SDS011;38616;42.140;24.760;2022-08-19T14:02:56;9.50;;;3.90;;
52718;SDS011;38616;42.140;24.760;2022-08-19T14:05:23;5.78;;;3.75;;
52718;SDS011;38616;42.140;24.760;2022-08-19T14:07:50;5.22;;;4.00;;
52718;SDS011;38616;42.140;24.760;2022-08-19T14:10:16;8.25;;;3.90;;
52718;SDS011;38616;42.140;24.760;2022-08-19T14:12:43;5.82;;;4.00;;
52718;SDS011;38616;42.140;24.760;2022-08-19T14:15:10;7.80;;;3.53;;
52718;SDS011;38616;42.140;24.760;2022-08-19T14:17:39;8.82;;;4.30;;
52718;SDS011;38616;42.140;24.760;2022-08-19T14:20:07;7.40;;;3.90;;
52718;SDS011;38616;42.140;24.760;2022-08-19T14:22:35;5.28;;;4.00;;
52718;SDS011;38616;42.140;24.760;2022-08-19T14:25:02;9.05;;;4.40;;
52718;SDS011;38616;42.140;24.760;2022-08-19T14:27:30;9.38;;;4.72;;
52718;SDS011;38616;42.140;24.760;2022-08-19T14:29:58;6.53;;;4.40;;
52718;SDS011;38616;42.140;24.760;2022-08-19T14:32:24;5.50;;;4.13;;
52718;SDS011;38616;42.140;24.760;2022-08-19T14:34:52;7.65;;;4.75;;
52718;SDS011;38616;42.140;24.760;2022-08-19T14:37:18;7.32;;;4.65;;
52718;SDS011;38616;42.140;24.760;2022-08-19T14:39:44;12.57;;;4.57;;
52718;SDS011;38616;42.140;24.760;2022-08-19T14:42:10;6.30;;;3.97;;
52718;SDS011;38616;42.140;24.760;2022-08-19T14:44:36;5.57;;;3.85;;
52718;SDS011;38616;42.140;24.760;2022-08-19T14:47:03;7.13;;;3.90;;
52718;SDS011;38616;42.140;24.760;2022-08-19T14:49:28;7.07;;;4.23;;
52718;SDS011;38616;42.140;24.760;2022-08-19T14:51:54;11.70;;;6.20;;
52718;SDS011;38616;42.140;24.760;2022-08-19T14:54:20;7.35;;;3.67;;
52718;SDS011;38616;42.140;24.760;2022-08-19T14:56:46;6.82;;;4.20;;
52718;SDS011;38616;42.140;24.760;2022-08-19T14:59:13;8.50;;;3.58;;
52718;SDS011;38616;42.140;24.760;2022-08-19T15:01:38;9.02;;;4.60;;
52718;SDS011;38616;42.140;24.760;2022-08-19T15:04:04;10.57;;;3.95;;
52718;SDS011;38616;42.140;24.760;2022-08-19T15:06:29;5.63;;;3.87;;